Kezdőlap
METAR-TAF:

METAR-TAF

Repülőterek :

Johannesburg, Dél-afrikai Köztársaság

földrajzi szélesség: 26-09S, földrajzi hosszúság: 28-00E, magasság: 1626 m

Jelenlegi meteorológiai megfigyelések

A jelentés 56 perccel ezelõtt készült, 01:00 UTC
Délnyugati szél 7 kt
Hőmérséklet 6°C
Páratartalom 39%
Légköri nyomás 1027 hPa

METAR: FAJB 230100Z AUTO 22007KT //// // ////// 06/M07 Q1027

Idő: 03:56 (01:56 UTC)


TAF: hiányzik

Meteorológiai megfigyelések és előrejelzések több, mint 4000 repülőtéren (METAR és TAF jelentéseket).

A térképen piros és sárga pontok jelzik az elérhető meteorológiai állomásokat.

Mozgassa az egeret a pont fölött, hogy megjelenjen az állomás neve.

Azután kattintson az időjárási megfigyelések és előrejelzések megtekintéséhez.

A térkép megváltoztatása: kattintson a fekete keresztel jelölt zöld gombra ráközelítéshez, a vonallal jelölt zöld gombra távolításhoz, vagy a zöld nyilakra a szomszédos térképek eléréséhez.


METAR-TAF: